sensor_id;sensor_type;location;lat;lon;timestamp;temperature;humidity
53410;DHT22;66590;50.734;4.246;2023-04-15T00:01:06;10.40;99.90
53410;DHT22;66590;50.734;4.246;2023-04-15T00:03:33;10.50;99.90
53410;DHT22;66590;50.734;4.246;2023-04-15T00:06:00;10.40;99.90
53410;DHT22;66590;50.734;4.246;2023-04-15T00:08:27;10.50;99.90
53410;DHT22;66590;50.734;4.246;2023-04-15T00:10:54;10.50;99.90
53410;DHT22;66590;50.734;4.246;2023-04-15T00:13:21;10.50;99.90
53410;DHT22;66590;50.734;4.246;2023-04-15T00:15:48;10.40;99.90
53410;DHT22;66590;50.734;4.246;2023-04-15T00:18:16;10.40;99.90
53410;DHT22;66590;50.734;4.246;2023-04-15T00:20:43;10.40;99.90
53410;DHT22;66590;50.734;4.246;2023-04-15T00:23:10;10.40;99.90
53410;DHT22;66590;50.734;4.246;2023-04-15T00:25:37;10.40;99.90
53410;DHT22;66590;50.734;4.246;2023-04-15T00:28:04;10.50;99.90
53410;DHT22;66590;50.734;4.246;2023-04-15T00:30:31;10.60;99.90
53410;DHT22;66590;50.734;4.246;2023-04-15T00:32:59;10.50;99.90
53410;DHT22;66590;50.734;4.246;2023-04-15T00:35:28;10.40;99.90
53410;DHT22;66590;50.734;4.246;2023-04-15T00:37:55;10.30;99.90
53410;DHT22;66590;50.734;4.246;2023-04-15T00:40:22;10.20;99.90
53410;DHT22;66590;50.734;4.246;2023-04-15T00:42:50;10.30;99.90
53410;DHT22;66590;50.734;4.246;2023-04-15T00:45:17;10.30;99.90
53410;DHT22;66590;50.734;4.246;2023-04-15T00:47:44;10.20;99.90
53410;DHT22;66590;50.734;4.246;2023-04-15T00:50:12;10.10;99.90
53410;DHT22;66590;50.734;4.246;2023-04-15T00:52:41;10.10;99.90
53410;DHT22;66590;50.734;4.246;2023-04-15T00:55:08;10.00;99.90
53410;DHT22;66590;50.734;4.246;2023-04-15T00:57:36;10.10;99.90
53410;DHT22;66590;50.734;4.246;2023-04-15T01:00:05;10.10;99.90
53410;DHT22;66590;50.734;4.246;2023-04-15T01:02:32;10.10;99.90
53410;DHT22;66590;50.734;4.246;2023-04-15T01:05:00;10.00;99.90
53410;DHT22;66590;50.734;4.246;2023-04-15T01:07:27;10.00;99.90
53410;DHT22;66590;50.734;4.246;2023-04-15T01:09:56;10.10;99.90
53410;DHT22;66590;50.734;4.246;2023-04-15T01:12:23;10.10;99.90
53410;DHT22;66590;50.734;4.246;2023-04-15T01:14:52;10.10;99.90
53410;DHT22;66590;50.734;4.246;2023-04-15T01:17:19;10.10;99.90
53410;DHT22;66590;50.734;4.246;2023-04-15T01:19:46;10.10;99.90
53410;DHT22;66590;50.734;4.246;2023-04-15T01:22:14;10.10;99.90
53410;DHT22;66590;50.734;4.246;2023-04-15T01:24:44;10.00;99.90
53410;DHT22;66590;50.734;4.246;2023-04-15T01:27:16;10.10;99.90
53410;DHT22;66590;50.734;4.246;2023-04-15T01:29:43;10.00;99.90
53410;DHT22;66590;50.734;4.246;2023-04-15T01:32:10;10.00;99.90
53410;DHT22;66590;50.734;4.246;2023-04-15T01:34:37;9.90;99.90
53410;DHT22;66590;50.734;4.246;2023-04-15T01:37:04;9.80;99.90
53410;DHT22;66590;50.734;4.246;2023-04-15T01:39:31;9.80;99.90
53410;DHT22;66590;50.734;4.246;2023-04-15T01:41:58;9.80;99.90
53410;DHT22;66590;50.734;4.246;2023-04-15T01:44:26;9.80;99.90
53410;DHT22;66590;50.734;4.246;2023-04-15T01:46:53;9.80;99.90
53410;DHT22;66590;50.734;4.246;2023-04-15T01:49:20;9.80;99.90
53410;DHT22;66590;50.734;4.246;2023-04-15T01:51:47;9.80;99.90
53410;DHT22;66590;50.734;4.246;2023-04-15T01:54:14;9.80;99.90
53410;DHT22;66590;50.734;4.246;2023-04-15T01:56:41;9.70;99.90
53410;DHT22;66590;50.734;4.246;2023-04-15T01:59:08;9.70;99.90
53410;DHT22;66590;50.734;4.246;2023-04-15T02:01:36;9.70;99.90
53410;DHT22;66590;50.734;4.246;2023-04-15T02:04:03;9.60;99.90
53410;DHT22;66590;50.734;4.246;2023-04-15T02:06:30;9.60;99.90
53410;DHT22;66590;50.734;4.246;2023-04-15T02:08:57;9.60;99.90
53410;DHT22;66590;50.734;4.246;2023-04-15T02:11:24;9.60;99.90
53410;DHT22;66590;50.734;4.246;2023-04-15T02:13:51;9.60;99.90
53410;DHT22;66590;50.734;4.246;2023-04-15T02:16:18;9.60;99.90
53410;DHT22;66590;50.734;4.246;2023-04-15T02:18:47;9.60;99.90
53410;DHT22;66590;50.734;4.246;2023-04-15T02:21:14;9.60;99.90
53410;DHT22;66590;50.734;4.246;2023-04-15T02:23:41;9.60;99.90
53410;DHT22;66590;50.734;4.246;2023-04-15T02:26:08;9.60;99.90
53410;DHT22;66590;50.734;4.246;2023-04-15T02:28:35;9.70;99.90
53410;DHT22;66590;50.734;4.246;2023-04-15T02:31:04;9.80;99.90
53410;DHT22;66590;50.734;4.246;2023-04-15T02:33:31;9.80;99.90
53410;DHT22;66590;50.734;4.246;2023-04-15T02:36:00;9.80;99.90
53410;DHT22;66590;50.734;4.246;2023-04-15T02:38:27;9.70;99.90
53410;DHT22;66590;50.734;4.246;2023-04-15T02:40:53;9.70;99.90
53410;DHT22;66590;50.734;4.246;2023-04-15T02:43:20;9.60;99.90
53410;DHT22;66590;50.734;4.246;2023-04-15T02:45:47;9.60;99.90
53410;DHT22;66590;50.734;4.246;2023-04-15T02:48:14;9.60;99.90
53410;DHT22;66590;50.734;4.246;2023-04-15T02:50:41;9.80;99.90
53410;DHT22;66590;50.734;4.246;2023-04-15T02:53:09;9.70;99.90
53410;DHT22;66590;50.734;4.246;2023-04-15T02:55:36;9.70;99.90
53410;DHT22;66590;50.734;4.246;2023-04-15T02:58:03;9.70;99.90
53410;DHT22;66590;50.734;4.246;2023-04-15T03:00:30;9.80;99.90
53410;DHT22;66590;50.734;4.246;2023-04-15T03:03:01;9.80;99.90
53410;DHT22;66590;50.734;4.246;2023-04-15T03:05:29;9.80;99.90
53410;DHT22;66590;50.734;4.246;2023-04-15T03:07:56;9.70;99.90
53410;DHT22;66590;50.734;4.246;2023-04-15T03:10:24;9.70;99.90
53410;DHT22;66590;50.734;4.246;2023-04-15T03:12:51;9.70;99.90
53410;DHT22;66590;50.734;4.246;2023-04-15T03:15:18;9.70;99.90
53410;DHT22;66590;50.734;4.246;2023-04-15T03:17:45;9.70;99.90
53410;DHT22;66590;50.734;4.246;2023-04-15T03:20:12;9.70;99.90
53410;DHT22;66590;50.734;4.246;2023-04-15T03:22:39;9.70;99.90
53410;DHT22;66590;50.734;4.246;2023-04-15T03:25:06;9.70;99.90
53410;DHT22;66590;50.734;4.246;2023-04-15T03:27:36;9.80;99.90
53410;DHT22;66590;50.734;4.246;2023-04-15T03:30:04;9.80;99.90
53410;DHT22;66590;50.734;4.246;2023-04-15T03:32:31;9.80;99.90
53410;DHT22;66590;50.734;4.246;2023-04-15T03:34:58;9.90;99.90
53410;DHT22;66590;50.734;4.246;2023-04-15T03:37:25;9.90;99.90
53410;DHT22;66590;50.734;4.246;2023-04-15T03:39:52;9.90;99.90
53410;DHT22;66590;50.734;4.246;2023-04-15T03:42:19;9.80;99.90
53410;DHT22;66590;50.734;4.246;2023-04-15T03:44:48;9.80;99.90
53410;DHT22;66590;50.734;4.246;2023-04-15T03:47:15;9.70;99.90
53410;DHT22;66590;50.734;4.246;2023-04-15T03:49:41;9.60;99.90
53410;DHT22;66590;50.734;4.246;2023-04-15T03:52:08;9.70;99.90
53410;DHT22;66590;50.734;4.246;2023-04-15T03:54:35;9.70;99.90
53410;DHT22;66590;50.734;4.246;2023-04-15T03:57:02;9.80;99.90
53410;DHT22;66590;50.734;4.246;2023-04-15T03:59:29;9.80;99.90
53410;DHT22;66590;50.734;4.246;2023-04-15T04:01:58;9.60;99.90
53410;DHT22;66590;50.734;4.246;2023-04-15T04:04:25;9.50;99.90
53410;DHT22;66590;50.734;4.246;2023-04-15T04:06:52;9.50;99.90
53410;DHT22;66590;50.734;4.246;2023-04-15T04:09:19;9.50;99.90
53410;DHT22;66590;50.734;4.246;2023-04-15T04:11:45;9.60;99.90
53410;DHT22;66590;50.734;4.246;2023-04-15T04:14:12;9.60;99.90
53410;DHT22;66590;50.734;4.246;2023-04-15T04:16:39;9.50;99.90
53410;DHT22;66590;50.734;4.246;2023-04-15T04:19:08;9.50;99.90
53410;DHT22;66590;50.734;4.246;2023-04-15T04:21:35;9.40;99.90
53410;DHT22;66590;50.734;4.246;2023-04-15T04:24:02;9.30;99.90
53410;DHT22;66590;50.734;4.246;2023-04-15T04:26:29;9.40;99.90
53410;DHT22;66590;50.734;4.246;2023-04-15T04:28:56;9.50;99.90
53410;DHT22;66590;50.734;4.246;2023-04-15T04:31:22;9.40;99.90
53410;DHT22;66590;50.734;4.246;2023-04-15T04:33:49;9.50;99.90
53410;DHT22;66590;50.734;4.246;2023-04-15T04:36:18;9.50;99.90
53410;DHT22;66590;50.734;4.246;2023-04-15T04:38:45;9.50;99.90
53410;DHT22;66590;50.734;4.246;2023-04-15T04:41:11;9.50;99.90
53410;DHT22;66590;50.734;4.246;2023-04-15T04:43:38;9.50;99.90
53410;DHT22;66590;50.734;4.246;2023-04-15T04:46:05;9.40;99.90
53410;DHT22;66590;50.734;4.246;2023-04-15T04:48:32;9.40;99.90
53410;DHT22;66590;50.734;4.246;2023-04-15T04:50:59;9.30;99.90
53410;DHT22;66590;50.734;4.246;2023-04-15T04:53:28;9.30;99.90
53410;DHT22;66590;50.734;4.246;2023-04-15T04:55:54;9.30;99.90
53410;DHT22;66590;50.734;4.246;2023-04-15T04:58:23;9.40;99.90
53410;DHT22;66590;50.734;4.246;2023-04-15T05:00:50;9.30;99.90
53410;DHT22;66590;50.734;4.246;2023-04-15T05:03:17;9.20;99.90
53410;DHT22;66590;50.734;4.246;2023-04-15T05:05:44;9.30;99.90
53410;DHT22;66590;50.734;4.246;2023-04-15T05:08:11;9.30;99.90
53410;DHT22;66590;50.734;4.246;2023-04-15T05:10:39;9.30;99.90
53410;DHT22;66590;50.734;4.246;2023-04-15T05:13:06;9.30;99.90
53410;DHT22;66590;50.734;4.246;2023-04-15T05:15:33;9.30;99.90
53410;DHT22;66590;50.734;4.246;2023-04-15T05:18:00;9.30;99.90
53410;DHT22;66590;50.734;4.246;2023-04-15T05:20:27;9.30;99.90
53410;DHT22;66590;50.734;4.246;2023-04-15T05:22:54;9.50;99.90
53410;DHT22;66590;50.734;4.246;2023-04-15T05:25:21;9.50;99.90
53410;DHT22;66590;50.734;4.246;2023-04-15T05:27:49;9.40;99.90
53410;DHT22;66590;50.734;4.246;2023-04-15T05:30:16;9.40;99.90
53410;DHT22;66590;50.734;4.246;2023-04-15T05:32:43;9.40;99.90
53410;DHT22;66590;50.734;4.246;2023-04-15T05:35:10;9.40;99.90
53410;DHT22;66590;50.734;4.246;2023-04-15T05:37:37;9.60;99.90
53410;DHT22;66590;50.734;4.246;2023-04-15T05:40:05;9.60;99.90
53410;DHT22;66590;50.734;4.246;2023-04-15T05:42:32;9.60;99.90
53410;DHT22;66590;50.734;4.246;2023-04-15T05:45:02;9.60;99.90
53410;DHT22;66590;50.734;4.246;2023-04-15T05:47:29;9.60;99.90
53410;DHT22;66590;50.734;4.246;2023-04-15T05:49:56;9.60;99.90
53410;DHT22;66590;50.734;4.246;2023-04-15T05:52:23;9.60;99.90
53410;DHT22;66590;50.734;4.246;2023-04-15T05:54:49;9.60;99.90
53410;DHT22;66590;50.734;4.246;2023-04-15T05:57:16;9.70;99.90
53410;DHT22;66590;50.734;4.246;2023-04-15T05:59:43;9.70;99.90
53410;DHT22;66590;50.734;4.246;2023-04-15T06:02:12;9.80;99.90
53410;DHT22;66590;50.734;4.246;2023-04-15T06:04:39;9.70;99.90
53410;DHT22;66590;50.734;4.246;2023-04-15T06:07:06;9.80;99.90
53410;DHT22;66590;50.734;4.246;2023-04-15T06:09:33;9.80;99.90
53410;DHT22;66590;50.734;4.246;2023-04-15T06:12:00;9.70;99.90
53410;DHT22;66590;50.734;4.246;2023-04-15T06:14:27;9.80;99.90
53410;DHT22;66590;50.734;4.246;2023-04-15T06:16:54;9.90;99.90
53410;DHT22;66590;50.734;4.246;2023-04-15T06:19:22;9.90;99.90
53410;DHT22;66590;50.734;4.246;2023-04-15T06:21:49;9.90;99.90
53410;DHT22;66590;50.734;4.246;2023-04-15T06:24:16;10.00;99.90
53410;DHT22;66590;50.734;4.246;2023-04-15T06:26:44;10.10;99.90
53410;DHT22;66590;50.734;4.246;2023-04-15T06:29:10;10.20;99.90
53410;DHT22;66590;50.734;4.246;2023-04-15T06:31:37;10.30;99.90
53410;DHT22;66590;50.734;4.246;2023-04-15T06:34:05;10.30;99.90
53410;DHT22;66590;50.734;4.246;2023-04-15T06:36:33;10.50;99.90
53410;DHT22;66590;50.734;4.246;2023-04-15T06:39:00;10.60;99.90
53410;DHT22;66590;50.734;4.246;2023-04-15T06:41:27;10.60;99.90
53410;DHT22;66590;50.734;4.246;2023-04-15T06:43:54;10.80;99.90
53410;DHT22;66590;50.734;4.246;2023-04-15T06:46:21;10.80;99.90
53410;DHT22;66590;50.734;4.246;2023-04-15T06:48:48;11.00;99.90
53410;DHT22;66590;50.734;4.246;2023-04-15T06:51:15;11.10;99.90
53410;DHT22;66590;50.734;4.246;2023-04-15T06:53:43;11.20;99.90
53410;DHT22;66590;50.734;4.246;2023-04-15T06:56:11;11.30;99.90
53410;DHT22;66590;50.734;4.246;2023-04-15T06:58:38;11.70;99.90
53410;DHT22;66590;50.734;4.246;2023-04-15T07:01:05;11.60;99.90
53410;DHT22;66590;50.734;4.246;2023-04-15T07:03:32;11.60;99.90
53410;DHT22;66590;50.734;4.246;2023-04-15T07:05:59;11.20;99.90
53410;DHT22;66590;50.734;4.246;2023-04-15T07:08:25;11.30;99.90
53410;DHT22;66590;50.734;4.246;2023-04-15T07:10:54;11.70;99.90
53410;DHT22;66590;50.734;4.246;2023-04-15T07:13:21;11.60;99.90
53410;DHT22;66590;50.734;4.246;2023-04-15T07:15:48;11.80;99.90
53410;DHT22;66590;50.734;4.246;2023-04-15T07:18:15;12.30;99.90
53410;DHT22;66590;50.734;4.246;2023-04-15T07:20:42;12.20;99.90
53410;DHT22;66590;50.734;4.246;2023-04-15T07:23:09;12.50;99.90
53410;DHT22;66590;50.734;4.246;2023-04-15T07:25:36;12.70;99.90
53410;DHT22;66590;50.734;4.246;2023-04-15T07:28:05;13.00;99.90
53410;DHT22;66590;50.734;4.246;2023-04-15T07:30:32;13.40;99.90
53410;DHT22;66590;50.734;4.246;2023-04-15T07:33:00;13.90;99.90
53410;DHT22;66590;50.734;4.246;2023-04-15T07:35:27;14.40;99.90
53410;DHT22;66590;50.734;4.246;2023-04-15T07:37:54;14.90;99.90
53410;DHT22;66590;50.734;4.246;2023-04-15T07:40:21;15.30;99.90
53410;DHT22;66590;50.734;4.246;2023-04-15T07:42:49;15.80;99.90
53410;DHT22;66590;50.734;4.246;2023-04-15T07:45:18;16.10;99.90
53410;DHT22;66590;50.734;4.246;2023-04-15T07:47:45;16.40;99.90
53410;DHT22;66590;50.734;4.246;2023-04-15T07:50:12;16.50;99.90
53410;DHT22;66590;50.734;4.246;2023-04-15T07:52:39;16.00;99.90
53410;DHT22;66590;50.734;4.246;2023-04-15T07:55:07;16.50;99.90
53410;DHT22;66590;50.734;4.246;2023-04-15T07:57:35;16.80;99.90
53410;DHT22;66590;50.734;4.246;2023-04-15T08:00:03;16.90;99.90
53410;DHT22;66590;50.734;4.246;2023-04-15T08:02:32;17.20;99.90
53410;DHT22;66590;50.734;4.246;2023-04-15T08:04:59;17.20;99.90
53410;DHT22;66590;50.734;4.246;2023-04-15T08:07:26;17.30;99.90
53410;DHT22;66590;50.734;4.246;2023-04-15T08:09:53;17.50;99.90
53410;DHT22;66590;50.734;4.246;2023-04-15T08:12:20;17.40;99.90
53410;DHT22;66590;50.734;4.246;2023-04-15T08:14:47;17.40;99.90
53410;DHT22;66590;50.734;4.246;2023-04-15T08:17:15;17.20;99.90
53410;DHT22;66590;50.734;4.246;2023-04-15T08:19:43;17.30;99.90
53410;DHT22;66590;50.734;4.246;2023-04-15T08:22:10;17.50;99.90
53410;DHT22;66590;50.734;4.246;2023-04-15T08:24:44;16.90;99.90
53410;DHT22;66590;50.734;4.246;2023-04-15T08:27:11;16.90;99.90
53410;DHT22;66590;50.734;4.246;2023-04-15T08:29:38;17.30;99.90
53410;DHT22;66590;50.734;4.246;2023-04-15T08:32:05;17.00;99.90
53410;DHT22;66590;50.734;4.246;2023-04-15T08:34:32;16.60;99.90
53410;DHT22;66590;50.734;4.246;2023-04-15T08:37:01;16.40;99.90
53410;DHT22;66590;50.734;4.246;2023-04-15T08:39:28;16.30;99.90
53410;DHT22;66590;50.734;4.246;2023-04-15T08:41:58;15.80;99.90
53410;DHT22;66590;50.734;4.246;2023-04-15T08:44:28;15.30;99.90
53410;DHT22;66590;50.734;4.246;2023-04-15T08:46:56;15.30;99.90
53410;DHT22;66590;50.734;4.246;2023-04-15T08:49:27;15.30;99.90
53410;DHT22;66590;50.734;4.246;2023-04-15T08:51:54;15.30;99.90
53410;DHT22;66590;50.734;4.246;2023-04-15T08:54:26;15.50;99.90
53410;DHT22;66590;50.734;4.246;2023-04-15T08:56:53;15.60;99.90
53410;DHT22;66590;50.734;4.246;2023-04-15T08:59:20;15.70;99.90
53410;DHT22;66590;50.734;4.246;2023-04-15T09:01:48;15.70;99.90
53410;DHT22;66590;50.734;4.246;2023-04-15T09:04:15;15.80;99.90
53410;DHT22;66590;50.734;4.246;2023-04-15T09:06:43;15.70;99.90
53410;DHT22;66590;50.734;4.246;2023-04-15T09:09:11;15.80;99.90
53410;DHT22;66590;50.734;4.246;2023-04-15T09:11:40;15.50;99.90
53410;DHT22;66590;50.734;4.246;2023-04-15T09:14:07;15.70;99.90
53410;DHT22;66590;50.734;4.246;2023-04-15T09:16:55;16.00;99.90
53410;DHT22;66590;50.734;4.246;2023-04-15T09:19:23;16.10;99.90
53410;DHT22;66590;50.734;4.246;2023-04-15T09:21:51;16.10;99.90
53410;DHT22;66590;50.734;4.246;2023-04-15T09:24:19;16.20;99.90
53410;DHT22;66590;50.734;4.246;2023-04-15T09:26:51;16.10;99.90
53410;DHT22;66590;50.734;4.246;2023-04-15T09:29:19;16.30;99.90
53410;DHT22;66590;50.734;4.246;2023-04-15T09:31:46;16.30;99.90
53410;DHT22;66590;50.734;4.246;2023-04-15T09:34:13;16.40;99.90
53410;DHT22;66590;50.734;4.246;2023-04-15T09:36:52;16.50;99.90
53410;DHT22;66590;50.734;4.246;2023-04-15T09:39:20;16.80;99.90
53410;DHT22;66590;50.734;4.246;2023-04-15T09:42:03;16.80;99.90
53410;DHT22;66590;50.734;4.246;2023-04-15T09:44:30;17.00;99.90
53410;DHT22;66590;50.734;4.246;2023-04-15T09:46:57;17.20;99.90
53410;DHT22;66590;50.734;4.246;2023-04-15T09:49:26;17.10;99.90
53410;DHT22;66590;50.734;4.246;2023-04-15T09:51:58;16.90;99.90
53410;DHT22;66590;50.734;4.246;2023-04-15T09:54:33;17.00;99.90
53410;DHT22;66590;50.734;4.246;2023-04-15T09:57:06;16.80;99.90
53410;DHT22;66590;50.734;4.246;2023-04-15T09:59:33;17.20;99.90
53410;DHT22;66590;50.734;4.246;2023-04-15T10:02:03;17.50;99.90
53410;DHT22;66590;50.734;4.246;2023-04-15T10:04:32;17.90;99.90
53410;DHT22;66590;50.734;4.246;2023-04-15T10:07:02;18.40;99.90
53410;DHT22;66590;50.734;4.246;2023-04-15T10:09:30;18.50;98.30
53410;DHT22;66590;50.734;4.246;2023-04-15T10:11:58;18.30;95.70
53410;DHT22;66590;50.734;4.246;2023-04-15T10:14:27;18.00;93.80
53410;DHT22;66590;50.734;4.246;2023-04-15T10:16:59;17.70;94.40
53410;DHT22;66590;50.734;4.246;2023-04-15T10:19:30;17.80;93.20
53410;DHT22;66590;50.734;4.246;2023-04-15T10:21:58;17.70;94.30
53410;DHT22;66590;50.734;4.246;2023-04-15T10:24:25;17.70;93.20
53410;DHT22;66590;50.734;4.246;2023-04-15T10:26:53;17.70;94.20
53410;DHT22;66590;50.734;4.246;2023-04-15T10:29:20;18.00;94.60
53410;DHT22;66590;50.734;4.246;2023-04-15T10:31:48;18.00;94.40
53410;DHT22;66590;50.734;4.246;2023-04-15T10:34:16;18.10;94.00
53410;DHT22;66590;50.734;4.246;2023-04-15T10:36:44;18.40;94.20
53410;DHT22;66590;50.734;4.246;2023-04-15T10:39:38;18.40;92.10
53410;DHT22;66590;50.734;4.246;2023-04-15T10:42:06;18.30;91.70
53410;DHT22;66590;50.734;4.246;2023-04-15T10:44:35;18.50;91.90
53410;DHT22;66590;50.734;4.246;2023-04-15T10:47:09;18.40;90.60
53410;DHT22;66590;50.734;4.246;2023-04-15T10:49:42;18.50;91.50
53410;DHT22;66590;50.734;4.246;2023-04-15T10:52:10;18.80;91.20
53410;DHT22;66590;50.734;4.246;2023-04-15T10:54:37;18.90;88.80
53410;DHT22;66590;50.734;4.246;2023-04-15T10:57:09;19.00;90.00
53410;DHT22;66590;50.734;4.246;2023-04-15T11:00:02;19.10;88.10
53410;DHT22;66590;50.734;4.246;2023-04-15T11:02:40;18.90;83.20
53410;DHT22;66590;50.734;4.246;2023-04-15T11:05:08;18.90;87.70
53410;DHT22;66590;50.734;4.246;2023-04-15T11:07:40;19.10;86.20
53410;DHT22;66590;50.734;4.246;2023-04-15T11:13:22;19.60;85.30
53410;DHT22;66590;50.734;4.246;2023-04-15T11:15:49;19.60;85.90
53410;DHT22;66590;50.734;4.246;2023-04-15T11:18:19;19.70;85.60
53410;DHT22;66590;50.734;4.246;2023-04-15T11:20:48;19.30;80.30
53410;DHT22;66590;50.734;4.246;2023-04-15T11:23:17;18.90;83.70
53410;DHT22;66590;50.734;4.246;2023-04-15T11:25:45;18.70;80.70
53410;DHT22;66590;50.734;4.246;2023-04-15T11:28:13;19.00;80.10
53410;DHT22;66590;50.734;4.246;2023-04-15T11:30:41;19.10;78.10
53410;DHT22;66590;50.734;4.246;2023-04-15T11:33:10;19.20;76.80
53410;DHT22;66590;50.734;4.246;2023-04-15T11:35:40;19.20;77.20
53410;DHT22;66590;50.734;4.246;2023-04-15T11:38:09;19.40;79.40
53410;DHT22;66590;50.734;4.246;2023-04-15T11:40:36;19.50;77.40
53410;DHT22;66590;50.734;4.246;2023-04-15T11:43:05;19.20;71.60
53410;DHT22;66590;50.734;4.246;2023-04-15T11:45:32;19.40;72.30
53410;DHT22;66590;50.734;4.246;2023-04-15T11:48:10;19.40;70.60
53410;DHT22;66590;50.734;4.246;2023-04-15T11:50:39;19.60;71.10
53410;DHT22;66590;50.734;4.246;2023-04-15T11:53:08;19.50;71.50
53410;DHT22;66590;50.734;4.246;2023-04-15T11:55:43;19.10;69.90
53410;DHT22;66590;50.734;4.246;2023-04-15T11:58:12;19.20;71.10
53410;DHT22;66590;50.734;4.246;2023-04-15T12:00:46;19.50;70.00
53410;DHT22;66590;50.734;4.246;2023-04-15T12:03:21;19.90;69.70
53410;DHT22;66590;50.734;4.246;2023-04-15T12:06:06;19.30;67.80
53410;DHT22;66590;50.734;4.246;2023-04-15T12:11:38;19.00;69.30
53410;DHT22;66590;50.734;4.246;2023-04-15T12:14:09;19.10;66.10
53410;DHT22;66590;50.734;4.246;2023-04-15T12:16:38;19.30;63.40
53410;DHT22;66590;50.734;4.246;2023-04-15T12:19:17;19.20;59.20
53410;DHT22;66590;50.734;4.246;2023-04-15T12:21:47;18.80;56.90
53410;DHT22;66590;50.734;4.246;2023-04-15T12:24:14;18.70;57.70
53410;DHT22;66590;50.734;4.246;2023-04-15T12:26:46;18.90;58.40
53410;DHT22;66590;50.734;4.246;2023-04-15T12:29:15;19.00;57.20
53410;DHT22;66590;50.734;4.246;2023-04-15T12:31:49;19.10;54.40
53410;DHT22;66590;50.734;4.246;2023-04-15T12:34:17;18.90;55.10
53410;DHT22;66590;50.734;4.246;2023-04-15T12:36:46;19.10;56.90
53410;DHT22;66590;50.734;4.246;2023-04-15T12:39:13;19.40;57.10
53410;DHT22;66590;50.734;4.246;2023-04-15T12:41:40;19.60;58.00
53410;DHT22;66590;50.734;4.246;2023-04-15T12:44:08;19.60;59.70
53410;DHT22;66590;50.734;4.246;2023-04-15T12:46:35;19.70;60.80
53410;DHT22;66590;50.734;4.246;2023-04-15T12:49:02;19.50;60.00
53410;DHT22;66590;50.734;4.246;2023-04-15T12:51:29;19.30;61.30
53410;DHT22;66590;50.734;4.246;2023-04-15T12:53:58;19.20;58.00
53410;DHT22;66590;50.734;4.246;2023-04-15T12:56:25;19.00;57.30
53410;DHT22;66590;50.734;4.246;2023-04-15T12:58:52;18.90;54.40
53410;DHT22;66590;50.734;4.246;2023-04-15T13:01:20;18.80;57.20
53410;DHT22;66590;50.734;4.246;2023-04-15T13:03:47;18.50;58.10
53410;DHT22;66590;50.734;4.246;2023-04-15T13:06:15;18.70;57.20
53410;DHT22;66590;50.734;4.246;2023-04-15T13:08:42;19.00;58.80
53410;DHT22;66590;50.734;4.246;2023-04-15T13:11:24;19.10;59.40
53410;DHT22;66590;50.734;4.246;2023-04-15T13:13:52;19.30;59.50
53410;DHT22;66590;50.734;4.246;2023-04-15T13:16:19;18.90;59.20
53410;DHT22;66590;50.734;4.246;2023-04-15T13:18:47;18.80;59.50
53410;DHT22;66590;50.734;4.246;2023-04-15T13:21:15;19.10;60.70
53410;DHT22;66590;50.734;4.246;2023-04-15T13:23:42;19.20;61.60
53410;DHT22;66590;50.734;4.246;2023-04-15T13:26:09;19.30;59.30
53410;DHT22;66590;50.734;4.246;2023-04-15T13:28:38;19.40;57.90
53410;DHT22;66590;50.734;4.246;2023-04-15T13:31:05;19.20;59.50
53410;DHT22;66590;50.734;4.246;2023-04-15T13:33:33;18.80;58.70
53410;DHT22;66590;50.734;4.246;2023-04-15T13:36:00;18.80;60.40
53410;DHT22;66590;50.734;4.246;2023-04-15T13:38:27;18.50;60.20
53410;DHT22;66590;50.734;4.246;2023-04-15T13:40:54;18.70;58.20
53410;DHT22;66590;50.734;4.246;2023-04-15T13:43:21;18.90;59.30
53410;DHT22;66590;50.734;4.246;2023-04-15T13:45:50;18.90;59.20
53410;DHT22;66590;50.734;4.246;2023-04-15T13:48:17;18.80;59.30
53410;DHT22;66590;50.734;4.246;2023-04-15T13:50:44;18.40;58.00
53410;DHT22;66590;50.734;4.246;2023-04-15T13:53:11;18.40;61.20
53410;DHT22;66590;50.734;4.246;2023-04-15T13:55:38;18.50;62.10
53410;DHT22;66590;50.734;4.246;2023-04-15T13:58:06;18.70;61.20
53410;DHT22;66590;50.734;4.246;2023-04-15T14:00:33;18.80;60.40
53410;DHT22;66590;50.734;4.246;2023-04-15T14:03:02;18.50;58.40
53410;DHT22;66590;50.734;4.246;2023-04-15T14:05:30;18.20;59.80
53410;DHT22;66590;50.734;4.246;2023-04-15T14:07:59;18.30;60.10
53410;DHT22;66590;50.734;4.246;2023-04-15T14:10:26;18.60;57.10
53410;DHT22;66590;50.734;4.246;2023-04-15T14:12:53;18.50;59.40
53410;DHT22;66590;50.734;4.246;2023-04-15T14:15:20;18.40;58.60
53410;DHT22;66590;50.734;4.246;2023-04-15T14:17:47;18.30;60.20
53410;DHT22;66590;50.734;4.246;2023-04-15T14:20:16;18.30;60.90
53410;DHT22;66590;50.734;4.246;2023-04-15T14:22:43;18.20;62.50
53410;DHT22;66590;50.734;4.246;2023-04-15T14:25:10;18.40;65.90
53410;DHT22;66590;50.734;4.246;2023-04-15T14:27:49;18.20;65.30
53410;DHT22;66590;50.734;4.246;2023-04-15T14:30:16;18.20;64.00
53410;DHT22;66590;50.734;4.246;2023-04-15T14:32:43;18.30;63.50
53410;DHT22;66590;50.734;4.246;2023-04-15T14:35:10;18.20;64.60
53410;DHT22;66590;50.734;4.246;2023-04-15T14:37:39;18.30;64.20
53410;DHT22;66590;50.734;4.246;2023-04-15T14:40:08;18.00;63.00
53410;DHT22;66590;50.734;4.246;2023-04-15T14:42:35;17.70;65.30
53410;DHT22;66590;50.734;4.246;2023-04-15T14:45:03;17.60;64.60
53410;DHT22;66590;50.734;4.246;2023-04-15T14:47:30;17.40;65.70
53410;DHT22;66590;50.734;4.246;2023-04-15T14:49:57;17.50;67.60
53410;DHT22;66590;50.734;4.246;2023-04-15T14:52:24;17.40;68.10
53410;DHT22;66590;50.734;4.246;2023-04-15T14:54:53;17.20;67.40
53410;DHT22;66590;50.734;4.246;2023-04-15T14:57:20;17.20;66.60
53410;DHT22;66590;50.734;4.246;2023-04-15T14:59:47;17.20;65.90
53410;DHT22;66590;50.734;4.246;2023-04-15T15:02:14;17.40;65.10
53410;DHT22;66590;50.734;4.246;2023-04-15T15:05:02;17.30;65.40
53410;DHT22;66590;50.734;4.246;2023-04-15T15:07:29;17.40;66.10
53410;DHT22;66590;50.734;4.246;2023-04-15T15:09:57;17.50;65.30
53410;DHT22;66590;50.734;4.246;2023-04-15T15:12:24;17.60;67.00
53410;DHT22;66590;50.734;4.246;2023-04-15T15:14:51;17.50;68.60
53410;DHT22;66590;50.734;4.246;2023-04-15T15:17:19;17.80;68.90
53410;DHT22;66590;50.734;4.246;2023-04-15T15:19:45;17.90;68.70
53410;DHT22;66590;50.734;4.246;2023-04-15T15:22:13;18.00;68.80
53410;DHT22;66590;50.734;4.246;2023-04-15T15:24:40;17.80;68.50
53410;DHT22;66590;50.734;4.246;2023-04-15T15:27:08;17.60;68.50
53410;DHT22;66590;50.734;4.246;2023-04-15T15:29:36;17.10;70.20
53410;DHT22;66590;50.734;4.246;2023-04-15T15:32:03;17.20;71.30
53410;DHT22;66590;50.734;4.246;2023-04-15T15:34:30;17.20;69.40
53410;DHT22;66590;50.734;4.246;2023-04-15T15:36:57;17.20;71.20
53410;DHT22;66590;50.734;4.246;2023-04-15T15:39:26;17.10;74.40
53410;DHT22;66590;50.734;4.246;2023-04-15T15:41:53;16.70;76.60
53410;DHT22;66590;50.734;4.246;2023-04-15T15:44:22;16.20;79.60
53410;DHT22;66590;50.734;4.246;2023-04-15T15:46:49;16.10;81.10